sensor_id;sensor_type;location;lat;lon;timestamp;pressure;altitude;pressure_sealevel;temperature;humidity
54920;BME280;63804;53.120;8.764;2023-11-21T00:00:46;101064.50;;;11.55;80.92
54920;BME280;63804;53.120;8.764;2023-11-21T00:03:15;101066.19;;;11.56;81.17
54920;BME280;63804;53.120;8.764;2023-11-21T00:05:43;101070.78;;;11.54;81.37
54920;BME280;63804;53.120;8.764;2023-11-21T00:08:10;101068.22;;;11.52;81.58
54920;BME280;63804;53.120;8.764;2023-11-21T00:10:39;101065.56;;;11.52;81.66
54920;BME280;63804;53.120;8.764;2023-11-21T00:13:07;101063.25;;;11.47;81.86
54920;BME280;63804;53.120;8.764;2023-11-21T00:15:35;101069.94;;;11.53;81.77
54920;BME280;63804;53.120;8.764;2023-11-21T00:18:03;101071.84;;;11.51;81.86
54920;BME280;63804;53.120;8.764;2023-11-21T00:20:30;101075.84;;;11.57;81.57
54920;BME280;63804;53.120;8.764;2023-11-21T00:22:58;101080.31;;;11.56;81.63
54920;BME280;63804;53.120;8.764;2023-11-21T00:25:27;101081.38;;;11.54;81.75
54920;BME280;63804;53.120;8.764;2023-11-21T00:27:55;101086.56;;;11.55;81.46
54920;BME280;63804;53.120;8.764;2023-11-21T00:30:22;101092.97;;;11.53;81.95
54920;BME280;63804;53.120;8.764;2023-11-21T00:32:50;101087.31;;;11.57;81.85
54920;BME280;63804;53.120;8.764;2023-11-21T00:35:18;101084.03;;;11.54;81.71
54920;BME280;63804;53.120;8.764;2023-11-21T00:37:46;101086.19;;;11.49;82.02
54920;BME280;63804;53.120;8.764;2023-11-21T00:40:14;101084.53;;;11.59;81.72
54920;BME280;63804;53.120;8.764;2023-11-21T00:42:43;101079.69;;;11.53;81.65
54920;BME280;63804;53.120;8.764;2023-11-21T00:45:11;101086.91;;;11.51;81.80
54920;BME280;63804;53.120;8.764;2023-11-21T00:47:39;101096.78;;;11.49;81.68
54920;BME280;63804;53.120;8.764;2023-11-21T00:50:07;101095.06;;;11.47;81.72
54920;BME280;63804;53.120;8.764;2023-11-21T00:52:35;101093.94;;;11.39;81.65
54920;BME280;63804;53.120;8.764;2023-11-21T00:55:04;101102.72;;;11.39;81.64
54920;BME280;63804;53.120;8.764;2023-11-21T00:57:35;101101.13;;;11.37;81.62
54920;BME280;63804;53.120;8.764;2023-11-21T01:00:03;101104.13;;;11.45;81.37
54920;BME280;63804;53.120;8.764;2023-11-21T01:02:44;101107.06;;;11.40;81.35
54920;BME280;63804;53.120;8.764;2023-11-21T01:05:13;101107.06;;;11.40;81.21
54920;BME280;63804;53.120;8.764;2023-11-21T01:07:40;101113.69;;;11.35;81.40
54920;BME280;63804;53.120;8.764;2023-11-21T01:10:08;101120.88;;;11.45;81.38
54920;BME280;63804;53.120;8.764;2023-11-21T01:12:38;101120.34;;;11.40;81.31
54920;BME280;63804;53.120;8.764;2023-11-21T01:15:06;101118.56;;;11.41;81.41
54920;BME280;63804;53.120;8.764;2023-11-21T01:17:35;101116.84;;;11.40;81.51
54920;BME280;63804;53.120;8.764;2023-11-21T01:20:04;101116.75;;;11.41;81.53
54920;BME280;63804;53.120;8.764;2023-11-21T01:22:39;101129.25;;;11.39;81.84
54920;BME280;63804;53.120;8.764;2023-11-21T01:25:07;101139.13;;;11.37;81.80
54920;BME280;63804;53.120;8.764;2023-11-21T01:27:36;101131.41;;;11.34;81.88
54920;BME280;63804;53.120;8.764;2023-11-21T01:30:05;101136.38;;;11.39;82.33
54920;BME280;63804;53.120;8.764;2023-11-21T01:32:35;101139.97;;;11.38;82.14
54920;BME280;63804;53.120;8.764;2023-11-21T01:35:03;101139.97;;;11.38;82.11
54920;BME280;63804;53.120;8.764;2023-11-21T01:37:33;101144.53;;;11.36;82.04
54920;BME280;63804;53.120;8.764;2023-11-21T01:40:01;101146.13;;;11.38;81.94
54920;BME280;63804;53.120;8.764;2023-11-21T01:42:30;101147.59;;;11.42;82.16
54920;BME280;63804;53.120;8.764;2023-11-21T01:44:58;101149.50;;;11.40;82.03
54920;BME280;63804;53.120;8.764;2023-11-21T01:47:25;101153.97;;;11.40;81.96
54920;BME280;63804;53.120;8.764;2023-11-21T01:49:53;101155.25;;;11.34;82.24
54920;BME280;63804;53.120;8.764;2023-11-21T01:52:21;101148.28;;;11.33;82.18
54920;BME280;63804;53.120;8.764;2023-11-21T01:54:49;101161.28;;;11.36;82.19
54920;BME280;63804;53.120;8.764;2023-11-21T01:57:18;101161.50;;;11.46;82.12
54920;BME280;63804;53.120;8.764;2023-11-21T01:59:48;101159.69;;;11.46;82.01
54920;BME280;63804;53.120;8.764;2023-11-21T02:02:16;101170.09;;;11.50;82.26
54920;BME280;63804;53.120;8.764;2023-11-21T02:04:44;101165.63;;;11.50;82.00
54920;BME280;63804;53.120;8.764;2023-11-21T02:07:12;101170.72;;;11.53;82.19
54920;BME280;63804;53.120;8.764;2023-11-21T02:09:40;101169.25;;;11.49;82.04
54920;BME280;63804;53.120;8.764;2023-11-21T02:12:10;101165.97;;;11.45;82.37
54920;BME280;63804;53.120;8.764;2023-11-21T02:14:38;101178.03;;;11.50;82.13
54920;BME280;63804;53.120;8.764;2023-11-21T02:17:05;101178.75;;;11.52;82.24
54920;BME280;63804;53.120;8.764;2023-11-21T02:19:34;101186.72;;;11.52;82.25
54920;BME280;63804;53.120;8.764;2023-11-21T02:22:02;101192.16;;;11.50;81.87
54920;BME280;63804;53.120;8.764;2023-11-21T02:24:30;101196.19;;;11.43;82.72
54920;BME280;63804;53.120;8.764;2023-11-21T02:26:59;101199.34;;;11.48;82.54
54920;BME280;63804;53.120;8.764;2023-11-21T02:29:28;101205.41;;;11.50;82.18
54920;BME280;63804;53.120;8.764;2023-11-21T02:31:56;101212.31;;;11.53;82.23
54920;BME280;63804;53.120;8.764;2023-11-21T02:34:24;101206.88;;;11.54;81.99
54920;BME280;63804;53.120;8.764;2023-11-21T02:36:54;101202.63;;;11.52;82.47
54920;BME280;63804;53.120;8.764;2023-11-21T02:39:23;101216.13;;;11.49;82.72
54920;BME280;63804;53.120;8.764;2023-11-21T02:41:51;101210.84;;;11.49;82.23
54920;BME280;63804;53.120;8.764;2023-11-21T02:44:19;101211.03;;;11.45;82.20
54920;BME280;63804;53.120;8.764;2023-11-21T02:46:47;101215.50;;;11.45;82.52
54920;BME280;63804;53.120;8.764;2023-11-21T02:49:15;101215.16;;;11.50;82.08
54920;BME280;63804;53.120;8.764;2023-11-21T02:51:43;101222.38;;;11.47;82.10
54920;BME280;63804;53.120;8.764;2023-11-21T02:54:11;101219.00;;;11.45;82.12
54920;BME280;63804;53.120;8.764;2023-11-21T02:56:38;101217.19;;;11.46;82.17
54920;BME280;63804;53.120;8.764;2023-11-21T02:59:07;101222.59;;;11.44;82.09
54920;BME280;63804;53.120;8.764;2023-11-21T03:01:35;101227.38;;;11.39;82.18
54920;BME280;63804;53.120;8.764;2023-11-21T03:04:03;101225.56;;;11.40;82.17
54920;BME280;63804;53.120;8.764;2023-11-21T03:06:31;101220.25;;;11.40;82.04
54920;BME280;63804;53.120;8.764;2023-11-21T03:08:59;101231.72;;;11.40;82.00
54920;BME280;63804;53.120;8.764;2023-11-21T03:11:27;101232.66;;;11.39;82.04
54920;BME280;63804;53.120;8.764;2023-11-21T03:13:55;101235.00;;;11.44;81.73
54920;BME280;63804;53.120;8.764;2023-11-21T03:16:23;101244.13;;;11.40;81.92
54920;BME280;63804;53.120;8.764;2023-11-21T03:18:51;101239.78;;;11.26;82.11
54920;BME280;63804;53.120;8.764;2023-11-21T03:21:20;101235.22;;;11.28;82.29
54920;BME280;63804;53.120;8.764;2023-11-21T03:23:47;101245.63;;;11.18;82.36
54920;BME280;63804;53.120;8.764;2023-11-21T03:26:15;101245.63;;;11.18;82.03
54920;BME280;63804;53.120;8.764;2023-11-21T03:28:43;101242.84;;;11.20;82.10
54920;BME280;63804;53.120;8.764;2023-11-21T03:31:11;101253.66;;;11.17;82.37
54920;BME280;63804;53.120;8.764;2023-11-21T03:33:39;101256.44;;;11.15;82.41
54920;BME280;63804;53.120;8.764;2023-11-21T03:36:07;101253.56;;;11.18;82.25
54920;BME280;63804;53.120;8.764;2023-11-21T03:38:35;101262.44;;;11.17;82.01
54920;BME280;63804;53.120;8.764;2023-11-21T03:41:04;101267.56;;;11.20;82.02
54920;BME280;63804;53.120;8.764;2023-11-21T03:43:32;101281.31;;;11.13;82.31
54920;BME280;63804;53.120;8.764;2023-11-21T03:46:00;101282.16;;;11.13;82.05
54920;BME280;63804;53.120;8.764;2023-11-21T03:48:29;101287.38;;;11.15;82.13
54920;BME280;63804;53.120;8.764;2023-11-21T03:50:56;101285.03;;;11.10;81.93
54920;BME280;63804;53.120;8.764;2023-11-21T03:53:24;101290.63;;;11.06;82.33
54920;BME280;63804;53.120;8.764;2023-11-21T03:55:52;101295.22;;;11.04;82.04
54920;BME280;63804;53.120;8.764;2023-11-21T03:58:20;101302.84;;;11.08;82.01
54920;BME280;63804;53.120;8.764;2023-11-21T04:00:47;101296.50;;;11.11;82.23
54920;BME280;63804;53.120;8.764;2023-11-21T04:03:18;101305.19;;;11.13;81.83
54920;BME280;63804;53.120;8.764;2023-11-21T04:05:47;101317.34;;;11.03;82.20
54920;BME280;63804;53.120;8.764;2023-11-21T04:08:14;101329.09;;;10.98;82.25
54920;BME280;63804;53.120;8.764;2023-11-21T04:10:42;101328.91;;;11.02;81.81
54920;BME280;63804;53.120;8.764;2023-11-21T04:13:10;101330.72;;;11.01;81.84
54920;BME280;63804;53.120;8.764;2023-11-21T04:15:38;101333.75;;;10.95;81.92
54920;BME280;63804;53.120;8.764;2023-11-21T04:18:05;101332.19;;;10.92;81.97
54920;BME280;63804;53.120;8.764;2023-11-21T04:20:33;101333.13;;;10.91;81.91
54920;BME280;63804;53.120;8.764;2023-11-21T04:23:01;101341.69;;;10.95;81.98
54920;BME280;63804;53.120;8.764;2023-11-21T04:25:29;101343.31;;;10.97;81.30
54920;BME280;63804;53.120;8.764;2023-11-21T04:27:57;101355.19;;;10.92;81.25
54920;BME280;63804;53.120;8.764;2023-11-21T04:30:24;101358.97;;;10.88;81.09
54920;BME280;63804;53.120;8.764;2023-11-21T04:32:52;101365.19;;;10.87;81.23
54920;BME280;63804;53.120;8.764;2023-11-21T04:35:20;101360.13;;;10.84;81.10
54920;BME280;63804;53.120;8.764;2023-11-21T04:37:47;101365.97;;;10.89;80.85
54920;BME280;63804;53.120;8.764;2023-11-21T04:40:15;101373.06;;;10.88;80.67
54920;BME280;63804;53.120;8.764;2023-11-21T04:42:43;101378.91;;;10.93;80.63
54920;BME280;63804;53.120;8.764;2023-11-21T04:45:11;101383.47;;;10.91;80.37
54920;BME280;63804;53.120;8.764;2023-11-21T04:47:40;101382.59;;;10.91;80.52
54920;BME280;63804;53.120;8.764;2023-11-21T04:50:08;101386.50;;;10.85;80.29
54920;BME280;63804;53.120;8.764;2023-11-21T04:52:36;101399.22;;;10.80;80.43
54920;BME280;63804;53.120;8.764;2023-11-21T04:55:04;101399.59;;;10.74;80.41
54920;BME280;63804;53.120;8.764;2023-11-21T04:57:34;101401.88;;;10.66;80.58
54920;BME280;63804;53.120;8.764;2023-11-21T05:00:02;101409.19;;;10.62;80.50
54920;BME280;63804;53.120;8.764;2023-11-21T05:02:33;101396.97;;;10.60;80.55
54920;BME280;63804;53.120;8.764;2023-11-21T05:05:06;101409.47;;;10.58;80.94
54920;BME280;63804;53.120;8.764;2023-11-21T05:07:35;101414.38;;;10.64;80.25
54920;BME280;63804;53.120;8.764;2023-11-21T05:10:05;101417.69;;;10.67;79.96
54920;BME280;63804;53.120;8.764;2023-11-21T05:12:36;101425.72;;;10.66;79.74
54920;BME280;63804;53.120;8.764;2023-11-21T05:15:08;101428.38;;;10.66;79.65
54920;BME280;63804;53.120;8.764;2023-11-21T05:17:39;101427.06;;;10.59;79.45
54920;BME280;63804;53.120;8.764;2023-11-21T05:20:14;101440.78;;;10.51;78.80
54920;BME280;63804;53.120;8.764;2023-11-21T05:22:45;101444.75;;;10.44;78.51
54920;BME280;63804;53.120;8.764;2023-11-21T05:25:14;101449.75;;;10.48;78.39
54920;BME280;63804;53.120;8.764;2023-11-21T05:27:41;101453.47;;;10.46;78.20
54920;BME280;63804;53.120;8.764;2023-11-21T05:30:10;101456.13;;;10.46;78.36
54920;BME280;63804;53.120;8.764;2023-11-21T05:32:40;101452.63;;;10.45;78.59
54920;BME280;63804;53.120;8.764;2023-11-21T05:35:11;101462.94;;;10.50;78.56
54920;BME280;63804;53.120;8.764;2023-11-21T05:37:47;101463.09;;;10.47;78.31
54920;BME280;63804;53.120;8.764;2023-11-21T05:40:15;101467.91;;;10.40;77.96
54920;BME280;63804;53.120;8.764;2023-11-21T05:42:44;101477.56;;;10.41;78.13
54920;BME280;63804;53.120;8.764;2023-11-21T05:45:11;101481.44;;;10.36;77.60
54920;BME280;63804;53.120;8.764;2023-11-21T05:47:43;101493.25;;;10.30;77.30
54920;BME280;63804;53.120;8.764;2023-11-21T05:50:13;101497.44;;;10.34;76.95
54920;BME280;63804;53.120;8.764;2023-11-21T05:52:45;101497.28;;;10.21;76.87
54920;BME280;63804;53.120;8.764;2023-11-21T05:55:13;101503.63;;;10.19;76.59
54920;BME280;63804;53.120;8.764;2023-11-21T05:57:42;101502.97;;;10.15;76.30
54920;BME280;63804;53.120;8.764;2023-11-21T06:00:12;101503.03;;;10.14;75.92
54920;BME280;63804;53.120;8.764;2023-11-21T06:02:50;101510.97;;;10.14;75.83
54920;BME280;63804;53.120;8.764;2023-11-21T06:05:25;101518.63;;;10.18;75.49
54920;BME280;63804;53.120;8.764;2023-11-21T06:07:55;101525.72;;;10.18;75.33
54920;BME280;63804;53.120;8.764;2023-11-21T06:10:27;101531.13;;;10.16;75.33
54920;BME280;63804;53.120;8.764;2023-11-21T06:12:56;101535.47;;;10.17;75.26
54920;BME280;63804;53.120;8.764;2023-11-21T06:15:30;101527.25;;;10.22;75.12
54920;BME280;63804;53.120;8.764;2023-11-21T06:17:57;101531.97;;;10.17;75.20
54920;BME280;63804;53.120;8.764;2023-11-21T06:20:26;101553.41;;;10.12;75.23
54920;BME280;63804;53.120;8.764;2023-11-21T06:22:55;101556.25;;;10.09;75.11
54920;BME280;63804;53.120;8.764;2023-11-21T06:25:22;101551.72;;;10.11;74.91
54920;BME280;63804;53.120;8.764;2023-11-21T06:27:50;101558.09;;;10.07;75.51
54920;BME280;63804;53.120;8.764;2023-11-21T06:30:20;101565.97;;;10.09;75.31
54920;BME280;63804;53.120;8.764;2023-11-21T06:32:48;101576.16;;;10.00;75.31
54920;BME280;63804;53.120;8.764;2023-11-21T06:35:16;101587.50;;;10.02;75.35
54920;BME280;63804;53.120;8.764;2023-11-21T06:37:45;101585.44;;;10.08;75.12
54920;BME280;63804;53.120;8.764;2023-11-21T06:40:18;101594.41;;;10.05;75.02
54920;BME280;63804;53.120;8.764;2023-11-21T06:42:47;101598.47;;;10.11;74.60
54920;BME280;63804;53.120;8.764;2023-11-21T06:45:16;101599.25;;;10.13;74.33
54920;BME280;63804;53.120;8.764;2023-11-21T06:47:44;101605.28;;;10.15;74.17
54920;BME280;63804;53.120;8.764;2023-11-21T06:50:13;101613.50;;;10.10;74.68
54920;BME280;63804;53.120;8.764;2023-11-21T06:52:41;101620.88;;;10.05;74.42
54920;BME280;63804;53.120;8.764;2023-11-21T06:55:09;101624.63;;;10.01;74.77
54920;BME280;63804;53.120;8.764;2023-11-21T06:57:37;101634.66;;;9.96;74.60
54920;BME280;63804;53.120;8.764;2023-11-21T07:00:06;101631.38;;;9.91;74.98
54920;BME280;63804;53.120;8.764;2023-11-21T07:02:37;101640.53;;;9.85;75.37
54920;BME280;63804;53.120;8.764;2023-11-21T07:05:06;101642.06;;;9.89;74.82
54920;BME280;63804;53.120;8.764;2023-11-21T07:07:34;101642.66;;;9.94;74.52
54920;BME280;63804;53.120;8.764;2023-11-21T07:10:03;101651.53;;;9.93;74.54
54920;BME280;63804;53.120;8.764;2023-11-21T07:12:33;101656.81;;;9.93;74.76
54920;BME280;63804;53.120;8.764;2023-11-21T07:15:02;101656.66;;;9.96;74.38
54920;BME280;63804;53.120;8.764;2023-11-21T07:17:30;101660.06;;;9.98;74.44
54920;BME280;63804;53.120;8.764;2023-11-21T07:19:59;101662.38;;;9.89;74.49
54920;BME280;63804;53.120;8.764;2023-11-21T07:22:27;101665.88;;;9.89;74.45
54920;BME280;63804;53.120;8.764;2023-11-21T07:24:55;101673.88;;;9.88;74.65
54920;BME280;63804;53.120;8.764;2023-11-21T07:27:26;101670.91;;;9.94;74.73
54920;BME280;63804;53.120;8.764;2023-11-21T07:29:54;101678.00;;;9.93;74.46
54920;BME280;63804;53.120;8.764;2023-11-21T07:32:21;101675.50;;;9.90;74.77
54920;BME280;63804;53.120;8.764;2023-11-21T07:34:49;101667.75;;;9.87;74.62
54920;BME280;63804;53.120;8.764;2023-11-21T07:37:17;101673.44;;;9.95;74.35
54920;BME280;63804;53.120;8.764;2023-11-21T07:39:45;101679.34;;;10.00;74.34
54920;BME280;63804;53.120;8.764;2023-11-21T07:42:14;101684.66;;;10.00;74.08
54920;BME280;63804;53.120;8.764;2023-11-21T07:44:42;101690.22;;;9.96;74.35
54920;BME280;63804;53.120;8.764;2023-11-21T07:47:09;101701.22;;;9.88;74.11
54920;BME280;63804;53.120;8.764;2023-11-21T07:49:37;101707.44;;;9.87;74.11
54920;BME280;63804;53.120;8.764;2023-11-21T07:52:05;101711.28;;;9.82;74.48
54920;BME280;63804;53.120;8.764;2023-11-21T07:54:33;101721.19;;;9.78;74.66
54920;BME280;63804;53.120;8.764;2023-11-21T07:57:03;101727.16;;;9.82;74.58
54920;BME280;63804;53.120;8.764;2023-11-21T07:59:31;101724.25;;;9.86;74.40
54920;BME280;63804;53.120;8.764;2023-11-21T08:01:59;101735.84;;;9.84;74.68
54920;BME280;63804;53.120;8.764;2023-11-21T08:04:28;101733.19;;;9.84;74.52
54920;BME280;63804;53.120;8.764;2023-11-21T08:06:59;101735.16;;;9.80;74.74
54920;BME280;63804;53.120;8.764;2023-11-21T08:09:28;101738.75;;;9.79;74.28
54920;BME280;63804;53.120;8.764;2023-11-21T08:11:55;101749.00;;;9.85;73.95
54920;BME280;63804;53.120;8.764;2023-11-21T08:14:24;101749.06;;;9.84;74.01
54920;BME280;63804;53.120;8.764;2023-11-21T08:16:54;101742.66;;;9.88;73.73
54920;BME280;63804;53.120;8.764;2023-11-21T08:19:25;101752.41;;;9.87;73.96
54920;BME280;63804;53.120;8.764;2023-11-21T08:21:53;101754.03;;;9.90;73.97
54920;BME280;63804;53.120;8.764;2023-11-21T08:24:22;101757.53;;;9.90;73.72
54920;BME280;63804;53.120;8.764;2023-11-21T08:26:50;101765.22;;;9.95;73.76
54920;BME280;63804;53.120;8.764;2023-11-21T08:29:19;101770.25;;;9.99;73.71
54920;BME280;63804;53.120;8.764;2023-11-21T08:31:47;101770.09;;;10.02;73.50
54920;BME280;63804;53.120;8.764;2023-11-21T08:34:15;101783.47;;;9.99;73.21
54920;BME280;63804;53.120;8.764;2023-11-21T08:36:43;101779.91;;;10.00;72.97
54920;BME280;63804;53.120;8.764;2023-11-21T08:39:11;101787.84;;;10.00;73.35
54920;BME280;63804;53.120;8.764;2023-11-21T08:41:40;101792.97;;;10.04;72.81
54920;BME280;63804;53.120;8.764;2023-11-21T08:44:08;101797.75;;;9.97;73.24
54920;BME280;63804;53.120;8.764;2023-11-21T08:46:36;101798.44;;;10.00;73.39
54920;BME280;63804;53.120;8.764;2023-11-21T08:49:05;101802.63;;;10.05;73.41
54920;BME280;63804;53.120;8.764;2023-11-21T08:51:33;101805.19;;;10.06;73.47
54920;BME280;63804;53.120;8.764;2023-11-21T08:54:01;101802.69;;;10.03;73.45
54920;BME280;63804;53.120;8.764;2023-11-21T08:56:32;101806.63;;;9.96;73.88
54920;BME280;63804;53.120;8.764;2023-11-21T08:58:59;101817.81;;;10.01;73.71
54920;BME280;63804;53.120;8.764;2023-11-21T09:01:31;101815.59;;;10.09;73.41
54920;BME280;63804;53.120;8.764;2023-11-21T09:03:59;101830.69;;;10.07;73.71
54920;BME280;63804;53.120;8.764;2023-11-21T09:06:27;101838.72;;;10.06;73.57
54920;BME280;63804;53.120;8.764;2023-11-21T09:08:54;101842.66;;;10.14;73.07
54920;BME280;63804;53.120;8.764;2023-11-21T09:11:22;101850.94;;;10.08;73.12
54920;BME280;63804;53.120;8.764;2023-11-21T09:13:51;101861.88;;;10.18;73.21
54920;BME280;63804;53.120;8.764;2023-11-21T09:16:18;101855.28;;;10.27;73.16
54920;BME280;63804;53.120;8.764;2023-11-21T09:18:46;101864.28;;;10.22;72.80
54920;BME280;63804;53.120;8.764;2023-11-21T09:21:14;101869.66;;;10.21;73.04
54920;BME280;63804;53.120;8.764;2023-11-21T09:23:44;101872.00;;;10.27;73.13
54920;BME280;63804;53.120;8.764;2023-11-21T09:26:12;101872.09;;;10.25;72.60
54920;BME280;63804;53.120;8.764;2023-11-21T09:28:40;101881.09;;;10.21;72.82
54920;BME280;63804;53.120;8.764;2023-11-21T09:31:10;101886.31;;;10.23;73.24
54920;BME280;63804;53.120;8.764;2023-11-21T09:33:37;101896.03;;;10.22;72.70
54920;BME280;63804;53.120;8.764;2023-11-21T09:36:06;101896.44;;;10.32;72.75
54920;BME280;63804;53.120;8.764;2023-11-21T09:38:38;101893.00;;;10.30;72.69
54920;BME280;63804;53.120;8.764;2023-11-21T09:41:13;101900.19;;;10.28;72.42
54920;BME280;63804;53.120;8.764;2023-11-21T09:43:46;101912.47;;;10.29;72.26
54920;BME280;63804;53.120;8.764;2023-11-21T09:46:15;101906.56;;;10.24;72.35
54920;BME280;63804;53.120;8.764;2023-11-21T09:48:50;101909.16;;;10.25;72.35
54920;BME280;63804;53.120;8.764;2023-11-21T09:51:20;101908.56;;;10.36;71.64
54920;BME280;63804;53.120;8.764;2023-11-21T09:53:51;101913.88;;;10.36;71.32
54920;BME280;63804;53.120;8.764;2023-11-21T09:56:21;101925.81;;;10.28;71.21
54920;BME280;63804;53.120;8.764;2023-11-21T09:58:52;101923.88;;;10.31;71.61
54920;BME280;63804;53.120;8.764;2023-11-21T10:01:21;101929.53;;;10.23;71.33
54920;BME280;63804;53.120;8.764;2023-11-21T10:03:51;101928.59;;;10.24;71.64
54920;BME280;63804;53.120;8.764;2023-11-21T10:06:19;101931.72;;;10.33;71.74
54920;BME280;63804;53.120;8.764;2023-11-21T10:08:47;101938.38;;;10.22;72.19
54920;BME280;63804;53.120;8.764;2023-11-21T10:11:25;101943.00;;;10.36;72.12
54920;BME280;63804;53.120;8.764;2023-11-21T10:13:54;101941.19;;;10.37;71.61
54920;BME280;63804;53.120;8.764;2023-11-21T10:16:26;101944.53;;;10.40;71.13
54920;BME280;63804;53.120;8.764;2023-11-21T10:18:55;101939.09;;;10.43;71.09
54920;BME280;63804;53.120;8.764;2023-11-21T10:21:38;101946.50;;;10.53;70.60
54920;BME280;63804;53.120;8.764;2023-11-21T10:24:06;101941.91;;;10.56;70.72
54920;BME280;63804;53.120;8.764;2023-11-21T10:26:34;101944.81;;;10.52;70.43
54920;BME280;63804;53.120;8.764;2023-11-21T10:29:17;101959.16;;;10.47;70.67
54920;BME280;63804;53.120;8.764;2023-11-21T10:31:49;101961.50;;;10.54;70.63
54920;BME280;63804;53.120;8.764;2023-11-21T10:34:20;101959.84;;;10.51;70.33
54920;BME280;63804;53.120;8.764;2023-11-21T10:36:49;101963.75;;;10.44;70.27
54920;BME280;63804;53.120;8.764;2023-11-21T10:39:18;101958.22;;;10.48;70.37
54920;BME280;63804;53.120;8.764;2023-11-21T10:41:47;101955.25;;;10.55;70.38
54920;BME280;63804;53.120;8.764;2023-11-21T10:44:18;101959.94;;;10.49;70.42
54920;BME280;63804;53.120;8.764;2023-11-21T10:46:53;101956.34;;;10.51;70.01
54920;BME280;63804;53.120;8.764;2023-11-21T10:49:25;101958.91;;;10.52;69.97
54920;BME280;63804;53.120;8.764;2023-11-21T10:51:54;101959.59;;;10.56;69.71
54920;BME280;63804;53.120;8.764;2023-11-21T10:54:24;101956.78;;;10.59;69.42
54920;BME280;63804;53.120;8.764;2023-11-21T10:57:00;101960.47;;;10.72;69.28
54920;BME280;63804;53.120;8.764;2023-11-21T10:59:30;101965.53;;;10.61;69.39
54920;BME280;63804;53.120;8.764;2023-11-21T11:02:01;101967.81;;;10.67;69.14
54920;BME280;63804;53.120;8.764;2023-11-21T11:04:31;101970.63;;;10.64;69.65
54920;BME280;63804;53.120;8.764;2023-11-21T11:07:02;101971.41;;;10.66;69.63
54920;BME280;63804;53.120;8.764;2023-11-21T11:09:32;101971.59;;;10.79;69.19
54920;BME280;63804;53.120;8.764;2023-11-21T11:12:04;101984.16;;;10.91;69.36
54920;BME280;63804;53.120;8.764;2023-11-21T11:14:32;101984.34;;;10.88;68.84
54920;BME280;63804;53.120;8.764;2023-11-21T11:17:00;101989.13;;;10.81;69.40
54920;BME280;63804;53.120;8.764;2023-11-21T11:19:30;101991.59;;;10.68;69.66
54920;BME280;63804;53.120;8.764;2023-11-21T11:27:54;102000.88;;;10.60;69.79
54920;BME280;63804;53.120;8.764;2023-11-21T11:38:33;102008.34;;;10.69;69.97
54920;BME280;63804;53.120;8.764;2023-11-21T11:41:03;102002.69;;;10.75;69.63
54920;BME280;63804;53.120;8.764;2023-11-21T11:43:32;101996.38;;;10.78;69.31
54920;BME280;63804;53.120;8.764;2023-11-21T11:46:03;101994.84;;;10.89;69.47
54920;BME280;63804;53.120;8.764;2023-11-21T11:48:36;101994.00;;;10.89;69.66
54920;BME280;63804;53.120;8.764;2023-11-21T11:51:12;102003.66;;;10.90;69.97
54920;BME280;63804;53.120;8.764;2023-11-21T11:53:46;101999.63;;;10.83;70.60
54920;BME280;63804;53.120;8.764;2023-11-21T11:56:31;102005.09;;;10.80;70.22
54920;BME280;63804;53.120;8.764;2023-11-21T11:59:03;102001.50;;;10.65;70.67
54920;BME280;63804;53.120;8.764;2023-11-21T12:01:33;102011.00;;;10.69;70.43
54920;BME280;63804;53.120;8.764;2023-11-21T12:06:42;102018.81;;;10.55;70.30
54920;BME280;63804;53.120;8.764;2023-11-21T12:09:17;102022.59;;;10.66;70.00
54920;BME280;63804;53.120;8.764;2023-11-21T12:11:46;102028.75;;;10.67;69.68
54920;BME280;63804;53.120;8.764;2023-11-21T12:14:14;102032.50;;;10.63;70.11
54920;BME280;63804;53.120;8.764;2023-11-21T12:16:42;102047.84;;;10.56;69.26
54920;BME280;63804;53.120;8.764;2023-11-21T12:19:14;102043.19;;;10.61;69.07
54920;BME280;63804;53.120;8.764;2023-11-21T12:21:43;102044.75;;;10.48;69.61
54920;BME280;63804;53.120;8.764;2023-11-21T12:24:11;102048.72;;;10.57;69.36
54920;BME280;63804;53.120;8.764;2023-11-21T12:26:42;102056.44;;;10.61;69.33
54920;BME280;63804;53.120;8.764;2023-11-21T12:29:11;102049.34;;;10.62;69.27
54920;BME280;63804;53.120;8.764;2023-11-21T12:31:39;102058.59;;;10.70;69.38
54920;BME280;63804;53.120;8.764;2023-11-21T12:34:08;102052.88;;;10.78;69.34
54920;BME280;63804;53.120;8.764;2023-11-21T12:36:39;102059.72;;;10.82;69.16
54920;BME280;63804;53.120;8.764;2023-11-21T12:39:07;102061.25;;;10.86;69.16
54920;BME280;63804;53.120;8.764;2023-11-21T12:41:37;102075.78;;;10.79;69.82
54920;BME280;63804;53.120;8.764;2023-11-21T12:44:09;102068.03;;;10.76;69.83
54920;BME280;63804;53.120;8.764;2023-11-21T12:46:42;102068.75;;;10.62;70.34
54920;BME280;63804;53.120;8.764;2023-11-21T12:49:11;102066.78;;;10.66;70.46
54920;BME280;63804;53.120;8.764;2023-11-21T12:51:45;102073.75;;;10.51;70.96
54920;BME280;63804;53.120;8.764;2023-11-21T12:54:14;102075.44;;;10.52;70.88
54920;BME280;63804;53.120;8.764;2023-11-21T12:56:45;102077.00;;;10.56;70.27
54920;BME280;63804;53.120;8.764;2023-11-21T12:59:15;102087.28;;;10.45;70.39
54920;BME280;63804;53.120;8.764;2023-11-21T13:01:44;102082.47;;;10.36;70.37
54920;BME280;63804;53.120;8.764;2023-11-21T13:04:13;102090.28;;;10.39;70.78
54920;BME280;63804;53.120;8.764;2023-11-21T13:06:42;102098.53;;;10.33;70.64
54920;BME280;63804;53.120;8.764;2023-11-21T13:09:09;102102.09;;;10.32;70.23
54920;BME280;63804;53.120;8.764;2023-11-21T13:11:38;102102.41;;;10.25;70.39
54920;BME280;63804;53.120;8.764;2023-11-21T13:14:10;102112.81;;;10.11;70.86
54920;BME280;63804;53.120;8.764;2023-11-21T13:16:38;102113.88;;;10.07;70.75